Kathy Azlin — WDH4252 — position and weather

sailwx.info

Track history (hours):
 
Tides and Currents Weather Stations Pressure Air Temp Water Temp Dewpoint Dewpoint Depression Visibility Wind Speed Wind Dir Waves Ship Positions

Kathy Azlin

Owner: Mganolia Marine Traqnsport Company, Vicksburg, MS. More information available from US FCC via Universal Licensing System and Coast Guard Vessel Documentation Center.

Last reported at 2017-Nov-16 14:27 UTC. Time now 2017-Dec-13 01:50 UTC.
Position N 32°44' W 091°05'.
Warning: this ship's position is 26 days out of date.

Length 33 m; draft 2.8 m.

Type: Towing. MMSI: 367615770.

Date/timePositionNaut miles runAvg speedWind from/ knotsBaromVisibWave heightAir tempDewpointWater temp
2017-Nov-16 14:27N 32°44' W 091°05'4 3.0
2017-Nov-16 12:58N 32°40' W 091°07'3 3.9
2017-Nov-16 12:17N 32°38' W 091°09'1 4.0
2017-Nov-16 11:57N 32°37' W 091°09'2 4.3
2017-Nov-16 11:30N 32°35' W 091°08'2 4.4
2017-Nov-16 11:00N 32°34' W 091°06'2 4.1
2017-Nov-16 10:29N 32°31' W 091°06'2 5.1
2017-Nov-16 10:00N 32°29' W 091°07'2 4.9
2017-Nov-16 09:30N 32°27' W 091°05'2 4.7
2017-Nov-16 09:00N 32°26' W 091°03'2 4.7
2017-Nov-16 08:30N 32°25' W 091°00'2 4.1
2017-Nov-16 08:00N 32°23' W 090°60'2 3.8
2017-Nov-16 07:30N 32°21' W 090°60'2 4.6
2017-Nov-16 07:00N 32°21' W 090°57'0 0.4
2017-Nov-16 06:30N 32°21' W 090°57'2 4.0
2017-Nov-16 06:00N 32°20' W 090°54'2 4.3
2017-Nov-16 05:30N 32°18' W 090°55'0 1.0
2017-Nov-16 05:00N 32°18' W 090°55'0 0.0
2017-Nov-16 04:30N 32°18' W 090°55'0 0.0
2017-Nov-16 04:00N 32°18' W 090°55'0 0.0
2017-Nov-16 03:30N 32°18' W 090°55'0 0.0
2017-Nov-16 03:00N 32°18' W 090°55'0 0.0
2017-Nov-16 02:30N 32°18' W 090°55'0 0.0
2017-Nov-16 02:00N 32°18' W 090°55'0 0.0
2017-Nov-16 01:30N 32°18' W 090°55'0 0.0
2017-Nov-16 01:00N 32°18' W 090°55'0 0.0
2017-Nov-16 00:30N 32°18' W 090°55'1 2.3
2017-Nov-16 00:00N 32°17' W 090°56'3 5.1
2017-Nov-15 23:30N 32°15' W 090°58'2 4.6
2017-Nov-15 23:00N 32°13' W 090°59'3 5.0
2017-Nov-15 22:29N 32°11' W 090°60'2 4.7
2017-Nov-15 22:00N 32°08' W 091°00'2 4.3
2017-Nov-15 21:30N 32°07' W 091°02'3 4.4
2017-Nov-15 20:48N 32°08' W 091°06'1 4.3
2017-Nov-15 20:30N 32°07' W 091°07'5 4.8
2017-Nov-15 19:24N 32°02' W 091°04'  
2017-Nov-12 19:45N 29°50' W 091°58'1 4.5
2017-Nov-12 19:30N 29°50' W 091°59'2 4.4
2017-Nov-12 19:00N 29°49' W 092°01'2 4.5
2017-Nov-12 18:29N 29°48' W 092°04'2 4.7
2017-Nov-12 17:59N 29°48' W 092°06'2 4.7
2017-Nov-12 17:28N 29°47' W 092°09'2 3.9
2017-Nov-12 17:00N 29°47' W 092°11'2 3.9
2017-Nov-12 16:30N 29°47' W 092°13'1 2.1
2017-Nov-12 16:00N 29°48' W 092°14'0 0.0
2017-Nov-12 15:30N 29°48' W 092°14'0 0.0
2017-Nov-12 15:00N 29°48' W 092°14'0 0.0
2017-Nov-12 14:28N 29°48' W 092°14'0 0.5
2017-Nov-12 13:56N 29°48' W 092°15'1 2.4
2017-Nov-12 13:28N 29°48' W 092°16'1 1.3
2017-Nov-12 13:00N 29°49' W 092°16'1 2.9
2017-Nov-12 12:30N 29°50' W 092°18'2 3.7
2017-Nov-12 11:54N 29°51' W 092°20'53 1.2
2017-Nov-10 16:30N 30°14' W 093°15'0 0.0
2017-Nov-10 16:00N 30°14' W 093°15'0 0.0
2017-Nov-10 15:30N 30°14' W 093°15'0 0.0
2017-Nov-10 15:00N 30°14' W 093°15'0 0.0
2017-Nov-10 14:30N 30°14' W 093°15'0 0.0
2017-Nov-10 14:00N 30°14' W 093°15'0 0.0
2017-Nov-10 13:30N 30°14' W 093°15'0 0.0
2017-Nov-10 13:00N 30°14' W 093°15'0 0.0
2017-Nov-10 12:30N 30°14' W 093°15'0 0.0
2017-Nov-10 12:00N 30°14' W 093°15'0 0.0
2017-Nov-10 11:30N 30°14' W 093°15'0 0.0
2017-Nov-10 11:00N 30°14' W 093°15'0 0.0
2017-Nov-10 10:30N 30°14' W 093°15'0 0.0
2017-Nov-10 10:00N 30°14' W 093°15'0 0.0
2017-Nov-10 09:30N 30°14' W 093°15'0 0.0
2017-Nov-10 09:00N 30°14' W 093°15'0 0.0
2017-Nov-10 08:30N 30°14' W 093°15'0 0.0
2017-Nov-10 08:00N 30°14' W 093°15'0 0.0
2017-Nov-10 07:30N 30°14' W 093°15'0 0.0
2017-Nov-10 07:00N 30°14' W 093°15'0 0.0
2017-Nov-10 06:30N 30°14' W 093°15'0 0.0
2017-Nov-10 06:00N 30°14' W 093°15'0 0.0
2017-Nov-10 05:30N 30°14' W 093°15'0 0.0
2017-Nov-10 05:00N 30°14' W 093°15'0 0.0
2017-Nov-10 04:30N 30°14' W 093°15'0 0.0
2017-Nov-10 04:00N 30°14' W 093°15'0 0.0
2017-Nov-10 03:30N 30°14' W 093°15'0 0.0
2017-Nov-10 03:00N 30°14' W 093°15'0 0.0
2017-Nov-10 02:30N 30°14' W 093°15'0 0.0
2017-Nov-10 02:00N 30°14' W 093°15'0 0.0
2017-Nov-10 01:30N 30°14' W 093°15'0 0.0
2017-Nov-10 01:00N 30°14' W 093°15'0 0.0
2017-Nov-10 00:30N 30°14' W 093°15'0 0.0
2017-Nov-10 00:00N 30°14' W 093°15'0 0.0
2017-Nov-09 23:30N 30°14' W 093°15'0 0.0
2017-Nov-09 23:00N 30°14' W 093°15'0 0.0
2017-Nov-09 22:30N 30°14' W 093°15'0 0.0
2017-Nov-09 22:00N 30°14' W 093°15'0 0.0
2017-Nov-09 21:30N 30°14' W 093°15'0 0.0
2017-Nov-09 20:59N 30°14' W 093°15'0 0.0
2017-Nov-09 20:30N 30°14' W 093°15'0 0.0
2017-Nov-09 20:00N 30°14' W 093°15'0 0.0
2017-Nov-09 19:30N 30°14' W 093°15'0 0.0
2017-Nov-09 19:00N 30°14' W 093°15'0 0.0
2017-Nov-09 18:30N 30°14' W 093°15'0 0.0
2017-Nov-09 18:00N 30°14' W 093°15'0 0.0
2017-Nov-09 17:30N 30°14' W 093°15'0 0.0
2017-Nov-09 17:00N 30°14' W 093°15'0 0.0
2017-Nov-09 16:30N 30°14' W 093°15'0 0.0
2017-Nov-09 16:00N 30°14' W 093°15'0 0.0
2017-Nov-09 15:30N 30°14' W 093°15'0 0.0
2017-Nov-09 15:00N 30°14' W 093°15'0 0.0
2017-Nov-09 14:30N 30°14' W 093°15'0 0.0
2017-Nov-09 14:00N 30°14' W 093°15'0 0.0
2017-Nov-09 13:30N 30°14' W 093°15'0 0.0
2017-Nov-09 13:00N 30°14' W 093°15'0 0.0
2017-Nov-09 12:30N 30°14' W 093°15'0 0.0
2017-Nov-09 12:00N 30°14' W 093°15'0 0.0
2017-Nov-09 11:30N 30°14' W 093°15'0 0.0
2017-Nov-09 11:00N 30°14' W 093°15'0 0.0
2017-Nov-09 10:30N 30°14' W 093°15'0 0.0
2017-Nov-09 10:00N 30°14' W 093°15'0 0.0
2017-Nov-09 09:30N 30°14' W 093°15'0 0.0
2017-Nov-09 09:00N 30°14' W 093°15'0 0.0
2017-Nov-09 08:30N 30°14' W 093°15'0 0.0
2017-Nov-09 08:00N 30°14' W 093°15'0 0.0
2017-Nov-09 07:30N 30°14' W 093°15'0 0.0
2017-Nov-09 07:00N 30°14' W 093°15'0 0.1
2017-Nov-09 06:30N 30°14' W 093°15'0 0.1
2017-Nov-09 06:00N 30°14' W 093°15'2 3.7
2017-Nov-09 05:30N 30°12' W 093°17'3 5.7
2017-Nov-09 05:00N 30°10' W 093°19'3 5.4
2017-Nov-09 04:30N 30°08' W 093°20'2 4.9
2017-Nov-09 04:00N 30°05' W 093°20'0 0.5
2017-Nov-09 03:30N 30°05' W 093°20'0 0.2
2017-Nov-09 03:00N 30°05' W 093°20'0 0.1
2017-Nov-09 02:30N 30°05' W 093°20'0 0.0
2017-Nov-09 02:00N 30°05' W 093°20'0 0.0
2017-Nov-09 01:30N 30°05' W 093°20'0 0.0
2017-Nov-09 01:00N 30°05' W 093°20'0 0.0
2017-Nov-09 00:30N 30°05' W 093°20'0 0.0
2017-Nov-09 00:00N 30°05' W 093°20'0 0.0
2017-Nov-08 23:30N 30°05' W 093°20'0 0.0
2017-Nov-08 23:00N 30°05' W 093°20'0 0.0
2017-Nov-08 22:30N 30°05' W 093°20'0 0.0
2017-Nov-08 22:00N 30°05' W 093°20'0 0.0
2017-Nov-08 21:30N 30°05' W 093°20'0 0.0
2017-Nov-08 21:00N 30°05' W 093°20'0 0.0
2017-Nov-08 20:30N 30°05' W 093°20'0 0.0
2017-Nov-08 20:00N 30°05' W 093°20'0 0.0
2017-Nov-08 19:30N 30°05' W 093°20'0 0.0
2017-Nov-08 19:00N 30°05' W 093°20'0 0.0
2017-Nov-08 18:30N 30°05' W 093°20'0 0.0
2017-Nov-08 18:00N 30°05' W 093°20'0 0.0
2017-Nov-08 17:30N 30°05' W 093°20'0 0.0
2017-Nov-08 17:00N 30°05' W 093°20'0 0.0
2017-Nov-08 16:30N 30°05' W 093°20'0 0.0
2017-Nov-08 16:00N 30°05' W 093°20'0 0.0
2017-Nov-08 15:30N 30°05' W 093°20'0 0.0
2017-Nov-08 15:00N 30°05' W 093°20'0 0.0
2017-Nov-08 14:30N 30°05' W 093°20'0 0.0
2017-Nov-08 14:00N 30°05' W 093°20'0 0.0
2017-Nov-08 13:30N 30°05' W 093°20'0 0.0
2017-Nov-08 13:00N 30°05' W 093°20'0 0.0
2017-Nov-08 12:30N 30°05' W 093°20'0 0.0
2017-Nov-08 12:00N 30°05' W 093°20'0 0.0
2017-Nov-08 11:30N 30°05' W 093°20'0 0.0
2017-Nov-08 11:00N 30°05' W 093°20'0 0.0
2017-Nov-08 10:30N 30°05' W 093°20'0 0.0
2017-Nov-08 10:00N 30°05' W 093°20'0 0.0
2017-Nov-08 09:30N 30°05' W 093°20'0 0.0
2017-Nov-08 09:00N 30°05' W 093°20'0 0.0
2017-Nov-08 08:30N 30°05' W 093°20'0 0.0
2017-Nov-08 08:00N 30°05' W 093°20'0 0.0
2017-Nov-08 07:30N 30°05' W 093°20'0 0.0
2017-Nov-08 07:00N 30°05' W 093°20'0 0.0
2017-Nov-08 06:30N 30°05' W 093°20'0 0.0
2017-Nov-08 06:00N 30°05' W 093°20'0 0.0
2017-Nov-08 05:30N 30°05' W 093°20'0 0.0
2017-Nov-08 05:00N 30°05' W 093°20'0 0.0
2017-Nov-08 04:30N 30°05' W 093°20'0 0.0
2017-Nov-08 04:00N 30°05' W 093°20'0 0.0
2017-Nov-08 03:30N 30°05' W 093°20'0 0.0
2017-Nov-08 03:00N 30°05' W 093°20'0 0.0
2017-Nov-08 02:30N 30°05' W 093°20'0 0.0
2017-Nov-08 02:00N 30°05' W 093°20'0 0.0
2017-Nov-08 01:30N 30°05' W 093°20'0 0.0
2017-Nov-08 01:00N 30°05' W 093°20'0 0.0
2017-Nov-08 00:30N 30°05' W 093°20'0 0.0
2017-Nov-08 00:00N 30°05' W 093°20'0 0.0
2017-Nov-07 23:30N 30°05' W 093°20'0 0.0
2017-Nov-07 23:00N 30°05' W 093°20'0 0.0
2017-Nov-07 22:30N 30°05' W 093°20'0 0.0
2017-Nov-07 22:00N 30°05' W 093°20'0 0.0
2017-Nov-07 21:30N 30°05' W 093°20'0 0.0
2017-Nov-07 21:00N 30°05' W 093°20'0 0.0
2017-Nov-07 20:30N 30°05' W 093°20'0 0.0
2017-Nov-07 20:00N 30°05' W 093°20'0 0.0
2017-Nov-07 19:30N 30°05' W 093°20'0 0.0
2017-Nov-07 19:00N 30°05' W 093°20'0 0.0
2017-Nov-07 18:30N 30°05' W 093°20'0 0.0
2017-Nov-07 18:00N 30°05' W 093°20'0 0.0
2017-Nov-07 17:30N 30°05' W 093°20'0 0.0
2017-Nov-07 17:00N 30°05' W 093°20'0 0.0
2017-Nov-07 16:30N 30°05' W 093°20'0 0.0
2017-Nov-07 16:00N 30°05' W 093°20'0 0.0
2017-Nov-07 15:30N 30°05' W 093°20'0 0.0
2017-Nov-07 15:00N 30°05' W 093°20'0 0.0
2017-Nov-07 14:30N 30°05' W 093°20'0 0.0
2017-Nov-07 14:00N 30°05' W 093°20'0 0.0
2017-Nov-07 13:30N 30°05' W 093°20'0 0.0
2017-Nov-07 13:00N 30°05' W 093°20'0 0.0
2017-Nov-07 12:30N 30°05' W 093°20'0 0.0
2017-Nov-07 12:00N 30°05' W 093°20'0 0.0
2017-Nov-07 11:30N 30°05' W 093°20'0 0.0
2017-Nov-07 11:00N 30°05' W 093°20'0 0.0
2017-Nov-07 10:30N 30°05' W 093°20'0 0.0
2017-Nov-07 10:00N 30°05' W 093°20'0 0.0
2017-Nov-07 09:30N 30°05' W 093°20'0 0.0
2017-Nov-07 09:00N 30°05' W 093°20'0 0.0
2017-Nov-07 08:30N 30°05' W 093°20'0 0.0
2017-Nov-07 08:00N 30°05' W 093°20'0 0.2
2017-Nov-07 07:30N 30°05' W 093°20'1 2.2
2017-Nov-07 07:00N 30°06' W 093°19'1 2.9
2017-Nov-07 06:30N 30°05' W 093°18'0 0.9
2017-Nov-07 06:00N 30°05' W 093°17'2 3.6
2017-Nov-07 05:30N 30°04' W 093°16'2 3.1
2017-Nov-07 05:00N 30°02' W 093°15'2 4.5
2017-Nov-07 04:30N 30°00' W 093°14'1 1.6
2017-Nov-07 04:00N 29°60' W 093°13'0 1.0
2017-Nov-07 03:30N 29°59' W 093°13'2 5.0
2017-Nov-07 03:00N 29°57' W 093°11'2 4.6
2017-Nov-07 02:30N 29°56' W 093°09'2 5.0
2017-Nov-07 02:00N 29°56' W 093°06'  
Track history (hours):
 
Tides and Currents Weather Stations Pressure Air Temp Water Temp Dewpoint Dewpoint Depression Visibility Wind Speed Wind Dir Waves Ship Positions

Kathy Azlin

Owner: Mganolia Marine Traqnsport Company, Vicksburg, MS. More information available from US FCC via Universal Licensing System and Coast Guard Vessel Documentation Center.

Last reported at 2017-Nov-16 14:27 UTC. Time now 2017-Dec-13 01:50 UTC.
Position N 32°44' W 091°05'.
Warning: this ship's position is 26 days out of date.

Length 33 m; draft 2.8 m.

Type: Towing. MMSI: 367615770.

Date/timePositionNaut miles runAvg speedWind from/ knotsBaromVisibWave heightAir tempDewpointWater temp
2017-Nov-16 14:27N 32°44' W 091°05'4 3.0
2017-Nov-16 12:58N 32°40' W 091°07'3 3.9
2017-Nov-16 12:17N 32°38' W 091°09'1 4.0
2017-Nov-16 11:57N 32°37' W 091°09'2 4.3
2017-Nov-16 11:30N 32°35' W 091°08'2 4.4
2017-Nov-16 11:00N 32°34' W 091°06'2 4.1
2017-Nov-16 10:29N 32°31' W 091°06'2 5.1
2017-Nov-16 10:00N 32°29' W 091°07'2 4.9
2017-Nov-16 09:30N 32°27' W 091°05'2 4.7
2017-Nov-16 09:00N 32°26' W 091°03'2 4.7
2017-Nov-16 08:30N 32°25' W 091°00'2 4.1
2017-Nov-16 08:00N 32°23' W 090°60'2 3.8
2017-Nov-16 07:30N 32°21' W 090°60'2 4.6
2017-Nov-16 07:00N 32°21' W 090°57'0 0.4
2017-Nov-16 06:30N 32°21' W 090°57'2 4.0
2017-Nov-16 06:00N 32°20' W 090°54'2 4.3
2017-Nov-16 05:30N 32°18' W 090°55'0 1.0
2017-Nov-16 05:00N 32°18' W 090°55'0 0.0
2017-Nov-16 04:30N 32°18' W 090°55'0 0.0
2017-Nov-16 04:00N 32°18' W 090°55'0 0.0
2017-Nov-16 03:30N 32°18' W 090°55'0 0.0
2017-Nov-16 03:00N 32°18' W 090°55'0 0.0
2017-Nov-16 02:30N 32°18' W 090°55'0 0.0
2017-Nov-16 02:00N 32°18' W 090°55'0 0.0
2017-Nov-16 01:30N 32°18' W 090°55'0 0.0
2017-Nov-16 01:00N 32°18' W 090°55'0 0.0
2017-Nov-16 00:30N 32°18' W 090°55'1 2.3
2017-Nov-16 00:00N 32°17' W 090°56'3 5.1
2017-Nov-15 23:30N 32°15' W 090°58'2 4.6
2017-Nov-15 23:00N 32°13' W 090°59'3 5.0
2017-Nov-15 22:29N 32°11' W 090°60'2 4.7
2017-Nov-15 22:00N 32°08' W 091°00'2 4.3
2017-Nov-15 21:30N 32°07' W 091°02'3 4.4
2017-Nov-15 20:48N 32°08' W 091°06'1 4.3
2017-Nov-15 20:30N 32°07' W 091°07'5 4.8
2017-Nov-15 19:24N 32°02' W 091°04'  
2017-Nov-12 19:45N 29°50' W 091°58'1 4.5
2017-Nov-12 19:30N 29°50' W 091°59'2 4.4
2017-Nov-12 19:00N 29°49' W 092°01'2 4.5
2017-Nov-12 18:29N 29°48' W 092°04'2 4.7
2017-Nov-12 17:59N 29°48' W 092°06'2 4.7
2017-Nov-12 17:28N 29°47' W 092°09'2 3.9
2017-Nov-12 17:00N 29°47' W 092°11'2 3.9
2017-Nov-12 16:30N 29°47' W 092°13'1 2.1
2017-Nov-12 16:00N 29°48' W 092°14'0 0.0
2017-Nov-12 15:30N 29°48' W 092°14'0 0.0
2017-Nov-12 15:00N 29°48' W 092°14'0 0.0
2017-Nov-12 14:28N 29°48' W 092°14'0 0.5
2017-Nov-12 13:56N 29°48' W 092°15'1 2.4
2017-Nov-12 13:28N 29°48' W 092°16'1 1.3
2017-Nov-12 13:00N 29°49' W 092°16'1 2.9
2017-Nov-12 12:30N 29°50' W 092°18'2 3.7
2017-Nov-12 11:54N 29°51' W 092°20'53 1.2
2017-Nov-10 16:30N 30°14' W 093°15'0 0.0
2017-Nov-10 16:00N 30°14' W 093°15'0 0.0
2017-Nov-10 15:30N 30°14' W 093°15'0 0.0
2017-Nov-10 15:00N 30°14' W 093°15'0 0.0
2017-Nov-10 14:30N 30°14' W 093°15'0 0.0
2017-Nov-10 14:00N 30°14' W 093°15'0 0.0
2017-Nov-10 13:30N 30°14' W 093°15'0 0.0
2017-Nov-10 13:00N 30°14' W 093°15'0 0.0
2017-Nov-10 12:30N 30°14' W 093°15'0 0.0
2017-Nov-10 12:00N 30°14' W 093°15'0 0.0
2017-Nov-10 11:30N 30°14' W 093°15'0 0.0
2017-Nov-10 11:00N 30°14' W 093°15'0 0.0
2017-Nov-10 10:30N 30°14' W 093°15'0 0.0
2017-Nov-10 10:00N 30°14' W 093°15'0 0.0
2017-Nov-10 09:30N 30°14' W 093°15'0 0.0
2017-Nov-10 09:00N 30°14' W 093°15'0 0.0
2017-Nov-10 08:30N 30°14' W 093°15'0 0.0
2017-Nov-10 08:00N 30°14' W 093°15'0 0.0
2017-Nov-10 07:30N 30°14' W 093°15'0 0.0
2017-Nov-10 07:00N 30°14' W 093°15'0 0.0
2017-Nov-10 06:30N 30°14' W 093°15'0 0.0
2017-Nov-10 06:00N 30°14' W 093°15'0 0.0
2017-Nov-10 05:30N 30°14' W 093°15'0 0.0
2017-Nov-10 05:00N 30°14' W 093°15'0 0.0
2017-Nov-10 04:30N 30°14' W 093°15'0 0.0
2017-Nov-10 04:00N 30°14' W 093°15'0 0.0
2017-Nov-10 03:30N 30°14' W 093°15'0 0.0
2017-Nov-10 03:00N 30°14' W 093°15'0 0.0
2017-Nov-10 02:30N 30°14' W 093°15'0 0.0
2017-Nov-10 02:00N 30°14' W 093°15'0 0.0
2017-Nov-10 01:30N 30°14' W 093°15'0 0.0
2017-Nov-10 01:00N 30°14' W 093°15'0 0.0
2017-Nov-10 00:30N 30°14' W 093°15'0 0.0
2017-Nov-10 00:00N 30°14' W 093°15'0 0.0
2017-Nov-09 23:30N 30°14' W 093°15'0 0.0
2017-Nov-09 23:00N 30°14' W 093°15'0 0.0
2017-Nov-09 22:30N 30°14' W 093°15'0 0.0
2017-Nov-09 22:00N 30°14' W 093°15'0 0.0
2017-Nov-09 21:30N 30°14' W 093°15'0 0.0
2017-Nov-09 20:59N 30°14' W 093°15'0 0.0
2017-Nov-09 20:30N 30°14' W 093°15'0 0.0
2017-Nov-09 20:00N 30°14' W 093°15'0 0.0
2017-Nov-09 19:30N 30°14' W 093°15'0 0.0
2017-Nov-09 19:00N 30°14' W 093°15'0 0.0
2017-Nov-09 18:30N 30°14' W 093°15'0 0.0
2017-Nov-09 18:00N 30°14' W 093°15'0 0.0
2017-Nov-09 17:30N 30°14' W 093°15'0 0.0
2017-Nov-09 17:00N 30°14' W 093°15'0 0.0
2017-Nov-09 16:30N 30°14' W 093°15'0 0.0
2017-Nov-09 16:00N 30°14' W 093°15'0 0.0
2017-Nov-09 15:30N 30°14' W 093°15'0 0.0
2017-Nov-09 15:00N 30°14' W 093°15'0 0.0
2017-Nov-09 14:30N 30°14' W 093°15'0 0.0
2017-Nov-09 14:00N 30°14' W 093°15'0 0.0
2017-Nov-09 13:30N 30°14' W 093°15'0 0.0
2017-Nov-09 13:00N 30°14' W 093°15'0 0.0
2017-Nov-09 12:30N 30°14' W 093°15'0 0.0
2017-Nov-09 12:00N 30°14' W 093°15'0 0.0
2017-Nov-09 11:30N 30°14' W 093°15'0 0.0
2017-Nov-09 11:00N 30°14' W 093°15'0 0.0
2017-Nov-09 10:30N 30°14' W 093°15'0 0.0
2017-Nov-09 10:00N 30°14' W 093°15'0 0.0
2017-Nov-09 09:30N 30°14' W 093°15'0 0.0
2017-Nov-09 09:00N 30°14' W 093°15'0 0.0
2017-Nov-09 08:30N 30°14' W 093°15'0 0.0
2017-Nov-09 08:00N 30°14' W 093°15'0 0.0
2017-Nov-09 07:30N 30°14' W 093°15'0 0.0
2017-Nov-09 07:00N 30°14' W 093°15'0 0.1
2017-Nov-09 06:30N 30°14' W 093°15'0 0.1
2017-Nov-09 06:00N 30°14' W 093°15'2 3.7
2017-Nov-09 05:30N 30°12' W 093°17'3 5.7
2017-Nov-09 05:00N 30°10' W 093°19'3 5.4
2017-Nov-09 04:30N 30°08' W 093°20'2 4.9
2017-Nov-09 04:00N 30°05' W 093°20'0 0.5
2017-Nov-09 03:30N 30°05' W 093°20'0 0.2
2017-Nov-09 03:00N 30°05' W 093°20'0 0.1
2017-Nov-09 02:30N 30°05' W 093°20'0 0.0
2017-Nov-09 02:00N 30°05' W 093°20'0 0.0
2017-Nov-09 01:30N 30°05' W 093°20'0 0.0
2017-Nov-09 01:00N 30°05' W 093°20'0 0.0
2017-Nov-09 00:30N 30°05' W 093°20'0 0.0
2017-Nov-09 00:00N 30°05' W 093°20'0 0.0
2017-Nov-08 23:30N 30°05' W 093°20'0 0.0
2017-Nov-08 23:00N 30°05' W 093°20'0 0.0
2017-Nov-08 22:30N 30°05' W 093°20'0 0.0
2017-Nov-08 22:00N 30°05' W 093°20'0 0.0
2017-Nov-08 21:30N 30°05' W 093°20'0 0.0
2017-Nov-08 21:00N 30°05' W 093°20'0 0.0
2017-Nov-08 20:30N 30°05' W 093°20'0 0.0
2017-Nov-08 20:00N 30°05' W 093°20'0 0.0
2017-Nov-08 19:30N 30°05' W 093°20'0 0.0
2017-Nov-08 19:00N 30°05' W 093°20'0 0.0
2017-Nov-08 18:30N 30°05' W 093°20'0 0.0
2017-Nov-08 18:00N 30°05' W 093°20'0 0.0
2017-Nov-08 17:30N 30°05' W 093°20'0 0.0
2017-Nov-08 17:00N 30°05' W 093°20'0 0.0
2017-Nov-08 16:30N 30°05' W 093°20'0 0.0
2017-Nov-08 16:00N 30°05' W 093°20'0 0.0
2017-Nov-08 15:30N 30°05' W 093°20'0 0.0
2017-Nov-08 15:00N 30°05' W 093°20'0 0.0
2017-Nov-08 14:30N 30°05' W 093°20'0 0.0
2017-Nov-08 14:00N 30°05' W 093°20'0 0.0
2017-Nov-08 13:30N 30°05' W 093°20'0 0.0
2017-Nov-08 13:00N 30°05' W 093°20'0 0.0
2017-Nov-08 12:30N 30°05' W 093°20'0 0.0
2017-Nov-08 12:00N 30°05' W 093°20'0 0.0
2017-Nov-08 11:30N 30°05' W 093°20'0 0.0
2017-Nov-08 11:00N 30°05' W 093°20'0 0.0
2017-Nov-08 10:30N 30°05' W 093°20'0 0.0
2017-Nov-08 10:00N 30°05' W 093°20'0 0.0
2017-Nov-08 09:30N 30°05' W 093°20'0 0.0
2017-Nov-08 09:00N 30°05' W 093°20'0 0.0
2017-Nov-08 08:30N 30°05' W 093°20'0 0.0
2017-Nov-08 08:00N 30°05' W 093°20'0 0.0
2017-Nov-08 07:30N 30°05' W 093°20'0 0.0
2017-Nov-08 07:00N 30°05' W 093°20'0 0.0
2017-Nov-08 06:30N 30°05' W 093°20'0 0.0
2017-Nov-08 06:00N 30°05' W 093°20'0 0.0
2017-Nov-08 05:30N 30°05' W 093°20'0 0.0
2017-Nov-08 05:00N 30°05' W 093°20'0 0.0
2017-Nov-08 04:30N 30°05' W 093°20'0 0.0
2017-Nov-08 04:00N 30°05' W 093°20'0 0.0
2017-Nov-08 03:30N 30°05' W 093°20'0 0.0
2017-Nov-08 03:00N 30°05' W 093°20'0 0.0
2017-Nov-08 02:30N 30°05' W 093°20'0 0.0
2017-Nov-08 02:00N 30°05' W 093°20'0 0.0
2017-Nov-08 01:30N 30°05' W 093°20'0 0.0
2017-Nov-08 01:00N 30°05' W 093°20'0 0.0
2017-Nov-08 00:30N 30°05' W 093°20'0 0.0
2017-Nov-08 00:00N 30°05' W 093°20'0 0.0
2017-Nov-07 23:30N 30°05' W 093°20'0 0.0
2017-Nov-07 23:00N 30°05' W 093°20'0 0.0
2017-Nov-07 22:30N 30°05' W 093°20'0 0.0
2017-Nov-07 22:00N 30°05' W 093°20'0 0.0
2017-Nov-07 21:30N 30°05' W 093°20'0 0.0
2017-Nov-07 21:00N 30°05' W 093°20'0 0.0
2017-Nov-07 20:30N 30°05' W 093°20'0 0.0
2017-Nov-07 20:00N 30°05' W 093°20'0 0.0
2017-Nov-07 19:30N 30°05' W 093°20'0 0.0
2017-Nov-07 19:00N 30°05' W 093°20'0 0.0
2017-Nov-07 18:30N 30°05' W 093°20'0 0.0
2017-Nov-07 18:00N 30°05' W 093°20'0 0.0
2017-Nov-07 17:30N 30°05' W 093°20'0 0.0
2017-Nov-07 17:00N 30°05' W 093°20'0 0.0
2017-Nov-07 16:30N 30°05' W 093°20'0 0.0
2017-Nov-07 16:00N 30°05' W 093°20'0 0.0
2017-Nov-07 15:30N 30°05' W 093°20'0 0.0
2017-Nov-07 15:00N 30°05' W 093°20'0 0.0
2017-Nov-07 14:30N 30°05' W 093°20'0 0.0
2017-Nov-07 14:00N 30°05' W 093°20'0 0.0
2017-Nov-07 13:30N 30°05' W 093°20'0 0.0
2017-Nov-07 13:00N 30°05' W 093°20'0 0.0
2017-Nov-07 12:30N 30°05' W 093°20'0 0.0
2017-Nov-07 12:00N 30°05' W 093°20'0 0.0
2017-Nov-07 11:30N 30°05' W 093°20'0 0.0
2017-Nov-07 11:00N 30°05' W 093°20'0 0.0
2017-Nov-07 10:30N 30°05' W 093°20'0 0.0
2017-Nov-07 10:00N 30°05' W 093°20'0 0.0
2017-Nov-07 09:30N 30°05' W 093°20'0 0.0
2017-Nov-07 09:00N 30°05' W 093°20'0 0.0
2017-Nov-07 08:30N 30°05' W 093°20'0 0.0
2017-Nov-07 08:00N 30°05' W 093°20'0 0.2
2017-Nov-07 07:30N 30°05' W 093°20'1 2.2
2017-Nov-07 07:00N 30°06' W 093°19'1 2.9
2017-Nov-07 06:30N 30°05' W 093°18'0 0.9
2017-Nov-07 06:00N 30°05' W 093°17'2 3.6
2017-Nov-07 05:30N 30°04' W 093°16'2 3.1
2017-Nov-07 05:00N 30°02' W 093°15'2 4.5
2017-Nov-07 04:30N 30°00' W 093°14'1 1.6
2017-Nov-07 04:00N 29°60' W 093°13'0 1.0
2017-Nov-07 03:30N 29°59' W 093°13'2 5.0
2017-Nov-07 03:00N 29°57' W 093°11'2 4.6
2017-Nov-07 02:30N 29°56' W 093°09'2 5.0
2017-Nov-07 02:00N 29°56' W 093°06'  

Dump ship's entire track history